createdAt,value
2023-03-28T00:01:41.846Z,58.33
2023-03-28T00:04:11.566Z,58.27
2023-03-28T00:06:38.975Z,58.25
2023-03-28T00:09:05.879Z,58.17
2023-03-28T00:11:32.519Z,58.32
2023-03-28T00:14:01.299Z,58.51
2023-03-28T00:16:32.426Z,58.20
2023-03-28T00:19:11.762Z,58.38
2023-03-28T00:21:41.506Z,58.37
2023-03-28T00:24:13.968Z,58.36
2023-03-28T00:26:42.230Z,58.58
2023-03-28T00:29:15.788Z,58.27
2023-03-28T00:31:42.760Z,58.54
2023-03-28T00:34:09.619Z,58.45
2023-03-28T00:36:38.997Z,58.49
2023-03-28T00:39:06.701Z,58.53
2023-03-28T00:41:39.868Z,58.50
2023-03-28T00:44:38.848Z,58.58
2023-03-28T00:47:09.285Z,58.67
2023-03-28T00:49:36.471Z,58.46
2023-03-28T00:52:04.778Z,58.59
2023-03-28T00:54:39.522Z,58.70
2023-03-28T00:57:09.081Z,58.66
2023-03-28T00:59:38.514Z,58.69
2023-03-28T01:02:05.841Z,58.59
2023-03-28T01:04:46.532Z,58.83
2023-03-28T01:07:13.971Z,58.85
2023-03-28T01:09:40.903Z,58.80
2023-03-28T01:12:10.034Z,58.70
2023-03-28T01:14:39.308Z,58.87
2023-03-28T01:17:08.847Z,58.51
2023-03-28T01:20:02.557Z,58.99
2023-03-28T01:23:11.777Z,58.74
2023-03-28T01:26:11.218Z,58.85
2023-03-28T01:29:09.214Z,58.80
2023-03-28T01:31:56.410Z,59.03
2023-03-28T01:34:51.053Z,58.80
2023-03-28T01:37:30.101Z,58.69
2023-03-28T01:40:13.615Z,58.99
2023-03-28T01:42:44.554Z,58.97
2023-03-28T01:45:22.621Z,59.06
2023-03-28T01:47:55.356Z,58.75
2023-03-28T01:50:29.760Z,59.07
2023-03-28T01:53:03.566Z,59.28
2023-03-28T01:56:07.897Z,59.01
2023-03-28T01:58:44.870Z,58.80
2023-03-28T02:01:24.703Z,59.14
2023-03-28T02:03:56.362Z,59.00
2023-03-28T02:06:39.850Z,58.84
2023-03-28T02:09:14.634Z,59.08
2023-03-28T02:12:14.676Z,59.18
2023-03-28T02:15:05.131Z,59.24
2023-03-28T02:18:00.549Z,59.00
2023-03-28T02:20:55.452Z,59.05
2023-03-28T02:26:41.713Z,59.07
2023-03-28T02:29:28.543Z,59.07
2023-03-28T02:34:41.385Z,59.12
2023-03-28T02:37:22.906Z,59.27
2023-03-28T02:40:00.751Z,59.12
2023-03-28T02:43:01.299Z,59.19
2023-03-28T02:45:53.922Z,59.34
2023-03-28T02:54:31.422Z,59.16
2023-03-28T02:57:37.031Z,59.32
2023-03-28T03:00:15.875Z,59.33
2023-03-28T03:02:44.337Z,59.17
2023-03-28T03:05:11.862Z,58.96
2023-03-28T03:07:38.851Z,59.36
2023-03-28T03:10:07.570Z,59.14
2023-03-28T03:12:36.946Z,59.38
2023-03-28T03:15:05.300Z,59.46
2023-03-28T03:17:53.871Z,59.45
2023-03-28T03:20:26.728Z,59.31
2023-03-28T03:22:55.409Z,59.41
2023-03-28T03:25:22.408Z,59.28
2023-03-28T03:27:56.879Z,59.41
2023-03-28T03:30:23.873Z,59.52
2023-03-28T03:33:10.658Z,59.63
2023-03-28T03:35:38.541Z,59.56
2023-03-28T03:38:06.816Z,59.68
2023-03-28T03:40:34.061Z,59.42
2023-03-28T03:43:01.482Z,59.51
2023-03-28T03:45:28.701Z,59.52
2023-03-28T03:47:56.717Z,58.89
2023-03-28T03:50:24.034Z,59.04
2023-03-28T03:52:50.862Z,59.44
2023-03-28T03:55:23.216Z,59.62
2023-03-28T03:57:50.160Z,59.65
2023-03-28T04:00:17.266Z,59.82
2023-03-28T04:02:47.300Z,59.56
2023-03-28T04:05:20.014Z,59.72
2023-03-28T04:08:01.748Z,59.59
2023-03-28T04:10:34.070Z,59.65
2023-03-28T04:13:01.692Z,59.49
2023-03-28T04:15:28.953Z,59.64
2023-03-28T04:18:09.795Z,59.83
2023-03-28T04:20:41.828Z,59.59
2023-03-28T04:23:09.671Z,59.54
2023-03-28T04:25:41.712Z,59.42
2023-03-28T04:28:16.843Z,59.61
2023-03-28T04:30:58.246Z,59.53
2023-03-28T04:33:45.330Z,59.39
2023-03-28T04:36:18.775Z,59.44
2023-03-28T04:38:58.315Z,59.48
2023-03-28T04:41:46.252Z,59.44
2023-03-28T04:44:29.852Z,59.23
2023-03-28T04:47:02.324Z,59.21
2023-03-28T04:49:29.641Z,59.50
2023-03-28T04:51:56.605Z,59.41
2023-03-28T04:54:23.613Z,59.36
2023-03-28T04:57:04.784Z,59.70
2023-03-28T04:59:46.886Z,59.46
2023-03-28T05:02:22.303Z,59.50
2023-03-28T05:05:08.300Z,59.55
2023-03-28T05:07:35.173Z,59.40
2023-03-28T05:10:02.188Z,59.54
2023-03-28T05:12:34.721Z,59.44
2023-03-28T05:15:05.017Z,59.43
2023-03-28T05:17:33.990Z,59.63
2023-03-28T05:20:11.181Z,59.56
2023-03-28T05:22:49.024Z,59.30
2023-03-28T05:25:16.041Z,59.35
2023-03-28T05:27:42.971Z,59.53
2023-03-28T05:30:10.705Z,59.60
2023-03-28T05:32:38.765Z,59.52
2023-03-28T05:35:11.599Z,59.53
2023-03-28T05:37:41.216Z,59.49
2023-03-28T05:40:11.320Z,59.42
2023-03-28T05:42:40.656Z,59.41
2023-03-28T05:45:13.900Z,59.35
2023-03-28T05:48:16.126Z,59.27
2023-03-28T05:50:45.033Z,59.33
2023-03-28T05:53:12.065Z,59.22
2023-03-28T05:55:39.422Z,59.31
2023-03-28T05:58:06.455Z,59.37
2023-03-28T06:00:38.906Z,59.17
2023-03-28T06:03:07.938Z,59.26
2023-03-28T06:05:38.637Z,59.48
2023-03-28T06:08:15.592Z,59.23
2023-03-28T06:10:43.290Z,59.43
2023-03-28T06:13:19.939Z,59.19
2023-03-28T06:15:48.119Z,59.54
2023-03-28T06:18:16.234Z,59.31
2023-03-28T06:20:45.792Z,59.10
2023-03-28T06:23:12.733Z,59.31
2023-03-28T06:25:39.485Z,58.82
2023-03-28T06:28:07.043Z,59.37
2023-03-28T06:30:47.214Z,59.02
2023-03-28T06:33:14.110Z,59.10
2023-03-28T06:35:42.683Z,58.71
2023-03-28T06:38:09.468Z,58.37
2023-03-28T06:40:37.343Z,58.34
2023-03-28T06:43:04.035Z,58.23
2023-03-28T06:45:41.188Z,58.09
2023-03-28T06:48:12.171Z,57.76
2023-03-28T06:51:03.696Z,57.65
2023-03-28T06:53:31.036Z,57.42
2023-03-28T06:55:59.683Z,57.23
2023-03-28T06:58:27.076Z,57.39
2023-03-28T07:01:03.484Z,57.12
2023-03-28T07:03:36.474Z,57.07
2023-03-28T07:06:06.857Z,56.69
2023-03-28T07:08:34.470Z,56.75
2023-03-28T07:11:01.526Z,56.60
2023-03-28T07:13:31.778Z,56.37
2023-03-28T07:16:12.117Z,56.29
2023-03-28T07:18:39.155Z,56.28
2023-03-28T07:21:09.836Z,56.10
2023-03-28T07:23:36.957Z,56.02
2023-03-28T07:26:03.663Z,55.77
2023-03-28T07:28:31.001Z,55.75
2023-03-28T07:30:58.033Z,55.89
2023-03-28T07:33:34.213Z,55.51
2023-03-28T07:36:15.670Z,55.26
2023-03-28T07:38:48.408Z,55.64
2023-03-28T07:41:17.228Z,55.36
2023-03-28T07:43:44.218Z,55.43
2023-03-28T07:46:14.463Z,55.13
2023-03-28T07:48:42.814Z,55.35
2023-03-28T07:51:10.638Z,55.40
2023-03-28T07:53:38.415Z,55.24
2023-03-28T07:56:12.203Z,55.21
2023-03-28T07:58:57.477Z,55.38
2023-03-28T08:01:25.021Z,56.44
2023-03-28T08:03:56.815Z,56.14
2023-03-28T08:06:34.256Z,55.58
2023-03-28T08:09:02.761Z,55.55
2023-03-28T08:11:35.482Z,55.34
2023-03-28T08:14:03.787Z,55.43
2023-03-28T08:16:31.660Z,55.48
2023-03-28T08:19:10.081Z,55.34
2023-03-28T08:21:47.323Z,55.58
2023-03-28T08:24:19.514Z,55.47
2023-03-28T08:26:58.555Z,55.32
2023-03-28T08:29:25.487Z,55.30
2023-03-28T08:31:52.508Z,55.34
2023-03-28T08:34:19.361Z,55.48
2023-03-28T08:36:47.429Z,55.35
2023-03-28T08:39:27.204Z,55.37
2023-03-28T08:42:20.341Z,55.13
2023-03-28T08:45:08.851Z,55.13
2023-03-28T08:48:05.359Z,55.25
2023-03-28T08:50:45.214Z,55.12
2023-03-28T08:53:24.312Z,55.15
2023-03-28T08:55:53.548Z,54.79
2023-03-28T08:58:23.579Z,54.65
2023-03-28T09:00:52.095Z,54.90
2023-03-28T09:03:21.842Z,54.89
2023-03-28T09:05:57.122Z,55.16
2023-03-28T09:08:32.745Z,54.92
2023-03-28T09:11:14.201Z,54.67
2023-03-28T09:13:49.988Z,54.84
2023-03-28T09:16:44.576Z,54.71
2023-03-28T09:19:37.057Z,54.87
2023-03-28T09:22:47.081Z,54.65
2023-03-28T09:25:32.278Z,54.64
2023-03-28T09:28:13.185Z,54.45
2023-03-28T09:30:48.562Z,54.66
2023-03-28T09:33:21.391Z,54.63
2023-03-28T09:35:50.427Z,54.52
2023-03-28T09:38:40.036Z,54.51
2023-03-28T09:41:16.590Z,54.51
2023-03-28T09:43:53.263Z,54.35
2023-03-28T09:46:57.561Z,54.06
2023-03-28T09:49:35.158Z,54.09
2023-03-28T09:52:24.626Z,53.93
2023-03-28T09:54:52.470Z,53.81
2023-03-28T09:57:21.766Z,53.62
2023-03-28T09:59:58.682Z,53.61
2023-03-28T10:02:32.607Z,53.67
2023-03-28T10:05:33.307Z,53.52
2023-03-28T10:08:22.533Z,53.63
2023-03-28T10:11:19.835Z,53.57
2023-03-28T10:13:49.957Z,53.43
2023-03-28T10:16:37.037Z,53.67
2023-03-28T10:19:33.428Z,53.46
2023-03-28T10:22:26.426Z,53.54
2023-03-28T10:24:55.344Z,53.16
2023-03-28T10:27:27.806Z,53.34
2023-03-28T10:29:58.668Z,53.44
2023-03-28T10:32:31.677Z,53.38
2023-03-28T10:35:30.309Z,53.43
2023-03-28T10:38:16.514Z,53.30
2023-03-28T10:41:11.649Z,53.32
2023-03-28T10:43:57.126Z,53.30
2023-03-28T10:46:44.419Z,53.12
2023-03-28T10:49:21.019Z,53.22
2023-03-28T10:51:57.096Z,53.30
2023-03-28T10:54:50.684Z,53.03
2023-03-28T10:57:46.796Z,53.13
2023-03-28T11:00:37.047Z,53.32
2023-03-28T11:03:35.002Z,53.21
2023-03-28T11:06:15.341Z,53.08
2023-03-28T11:47:31.522Z,52.87
2023-03-28T11:50:30.978Z,52.87
2023-03-28T11:53:12.716Z,53.02
2023-03-28T11:56:07.025Z,52.87
2023-03-28T12:01:47.816Z,53.04
2023-03-28T12:04:22.471Z,52.90
2023-03-28T12:07:03.268Z,52.99
2023-03-28T12:09:56.321Z,53.01
2023-03-28T12:12:38.730Z,52.98
2023-03-28T12:15:14.505Z,52.99
2023-03-28T12:17:59.670Z,52.93
2023-03-28T12:20:33.942Z,52.94
2023-03-28T12:23:24.090Z,53.04
2023-03-28T12:26:21.479Z,52.93
2023-03-28T12:28:53.849Z,52.89
2023-03-28T12:31:57.535Z,52.88
2023-03-28T12:34:44.182Z,52.75
2023-03-28T12:37:28.797Z,52.96
2023-03-28T12:40:36.521Z,52.88
2023-03-28T12:43:04.815Z,52.82
2023-03-28T12:45:37.260Z,52.85
2023-03-28T12:48:14.018Z,52.80
2023-03-28T12:50:52.711Z,52.75
2023-03-28T12:53:21.915Z,52.72
2023-03-28T12:55:50.464Z,52.63
2023-03-28T12:58:34.313Z,52.53
2023-03-28T13:01:43.013Z,52.67
2023-03-28T13:11:14.859Z,52.41
2023-03-28T13:13:50.691Z,52.39
2023-03-28T13:16:42.900Z,52.35
2023-03-28T13:19:12.092Z,52.30
2023-03-28T13:21:55.190Z,52.13
2023-03-28T13:24:24.688Z,51.90
2023-03-28T13:26:55.403Z,52.01
2023-03-28T13:29:46.202Z,51.70
2023-03-28T13:32:18.657Z,51.86
2023-03-28T13:35:06.299Z,51.75
2023-03-28T13:37:47.381Z,51.50
2023-03-28T13:40:51.373Z,51.61
2023-03-28T13:43:56.107Z,51.61
2023-03-28T13:46:32.118Z,51.50
2023-03-28T13:49:06.836Z,51.56
2023-03-28T13:51:46.426Z,51.63
2023-03-28T13:54:13.687Z,51.65
2023-03-28T13:56:44.678Z,51.53
2023-03-28T13:59:16.082Z,51.79
2023-03-28T14:01:53.702Z,51.84
2023-03-28T14:04:26.491Z,51.78
2023-03-28T14:06:54.458Z,51.77
2023-03-28T14:09:27.692Z,51.86
2023-03-28T14:11:57.957Z,51.93
2023-03-28T14:14:45.911Z,51.91
2023-03-28T14:17:33.958Z,51.89
2023-03-28T14:20:05.351Z,52.06
2023-03-28T14:22:49.393Z,52.07
2023-03-28T14:25:24.805Z,52.13
2023-03-28T14:27:54.990Z,52.13
2023-03-28T14:30:26.643Z,52.13
2023-03-28T14:33:14.800Z,52.36
2023-03-28T14:35:43.126Z,52.11
2023-03-28T14:38:16.863Z,52.13
2023-03-28T14:40:45.881Z,52.19
2023-03-28T14:43:13.735Z,52.23
2023-03-28T14:45:43.474Z,52.18
2023-03-28T14:48:17.331Z,52.13
2023-03-28T14:50:46.044Z,52.10
2023-03-28T14:53:19.844Z,52.13
2023-03-28T14:55:51.090Z,52.06
2023-03-28T14:58:19.170Z,52.13
2023-03-28T15:00:52.922Z,52.41
2023-03-28T15:03:24.120Z,52.37
2023-03-28T15:05:54.540Z,52.40
2023-03-28T15:08:30.911Z,52.38
2023-03-28T15:11:03.695Z,52.67
2023-03-28T15:13:35.813Z,52.66
2023-03-28T15:16:05.589Z,52.64
2023-03-28T15:18:43.804Z,52.72
2023-03-28T15:21:11.700Z,52.47
2023-03-28T15:23:49.204Z,52.63
2023-03-28T15:26:25.479Z,52.72
2023-03-28T15:28:55.118Z,52.85
2023-03-28T15:31:22.516Z,52.72
2023-03-28T15:33:52.100Z,52.85
2023-03-28T15:36:22.475Z,52.75
2023-03-28T15:38:51.725Z,52.86
2023-03-28T15:41:28.885Z,52.82
2023-03-28T15:43:55.567Z,52.70
2023-03-28T15:46:30.423Z,52.84
2023-03-28T15:49:00.348Z,52.68
2023-03-28T15:51:28.325Z,52.67
2023-03-28T15:53:56.446Z,52.59
2023-03-28T15:56:41.126Z,52.73
2023-03-28T15:59:18.119Z,52.78
2023-03-28T16:01:45.021Z,52.76
2023-03-28T16:04:21.220Z,52.85
2023-03-28T16:06:48.920Z,53.52
2023-03-28T16:09:22.785Z,53.41
2023-03-28T16:12:00.121Z,52.93
2023-03-28T16:14:46.779Z,52.63
2023-03-28T16:17:29.117Z,52.36
2023-03-28T16:20:21.571Z,52.41
2023-03-28T16:22:49.071Z,53.07
2023-03-28T16:25:15.913Z,53.09
2023-03-28T16:27:42.870Z,53.09
2023-03-28T16:30:28.877Z,53.21
2023-03-28T16:32:56.193Z,53.18
2023-03-28T16:35:23.241Z,53.09
2023-03-28T16:37:49.886Z,53.19
2023-03-28T16:40:16.789Z,52.90
2023-03-28T16:42:43.718Z,53.02
2023-03-28T16:45:14.281Z,53.12
2023-03-28T16:47:42.092Z,52.78
2023-03-28T16:50:10.018Z,52.83
2023-03-28T16:52:40.433Z,52.96
2023-03-28T16:55:08.715Z,52.67
2023-03-28T16:57:37.019Z,52.63
2023-03-28T17:00:05.588Z,52.63
2023-03-28T17:02:32.407Z,52.58
2023-03-28T17:04:59.182Z,52.69
2023-03-28T17:07:25.948Z,52.43
2023-03-28T17:09:52.782Z,52.43
2023-03-28T17:12:21.229Z,52.29
2023-03-28T17:14:48.213Z,52.42
2023-03-28T17:17:15.771Z,52.34
2023-03-28T17:19:43.215Z,52.25
2023-03-28T17:22:10.148Z,52.46
2023-03-28T17:24:37.079Z,52.22
2023-03-28T17:27:04.176Z,52.42
2023-03-28T17:29:31.452Z,52.28
2023-03-28T17:31:58.363Z,52.20
2023-03-28T17:34:25.433Z,52.01
2023-03-28T17:36:53.486Z,52.13
2023-03-28T17:39:20.589Z,52.00
2023-03-28T17:41:47.554Z,51.83
2023-03-28T17:44:14.511Z,51.64
2023-03-28T17:46:41.523Z,51.76
2023-03-28T17:49:08.526Z,51.79
2023-03-28T17:51:35.524Z,51.76
2023-03-28T17:54:04.415Z,51.76
2023-03-28T17:56:31.173Z,51.84
2023-03-28T17:58:59.760Z,51.89
2023-03-28T18:01:26.477Z,52.04
2023-03-28T18:03:53.545Z,52.01
2023-03-28T18:06:41.192Z,52.11
2023-03-28T18:09:08.062Z,52.27
2023-03-28T18:11:35.985Z,52.22
2023-03-28T18:14:03.221Z,52.16
2023-03-28T18:16:30.213Z,52.16
2023-03-28T18:18:57.525Z,52.44
2023-03-28T18:21:26.393Z,52.36
2023-03-28T18:23:53.365Z,52.29
2023-03-28T18:26:20.259Z,52.50
2023-03-28T18:28:46.975Z,52.60
2023-03-28T18:31:17.490Z,52.71
2023-03-28T18:33:44.879Z,52.47
2023-03-28T18:36:12.945Z,52.38
2023-03-28T18:38:42.896Z,52.47
2023-03-28T18:41:11.025Z,52.27
2023-03-28T18:43:39.437Z,52.27
2023-03-28T18:46:15.360Z,52.20
2023-03-28T18:48:42.647Z,52.30
2023-03-28T18:51:09.448Z,52.30
2023-03-28T18:53:39.456Z,52.18
2023-03-28T18:56:07.528Z,52.37
2023-03-28T18:58:37.459Z,52.20
2023-03-28T19:01:05.942Z,52.55
2023-03-28T19:03:40.365Z,52.42
2023-03-28T19:06:09.450Z,52.50
2023-03-28T19:08:36.480Z,52.55
2023-03-28T19:11:14.858Z,52.76
2023-03-28T19:13:42.531Z,52.64
2023-03-28T19:16:16.995Z,52.98
2023-03-28T19:18:46.888Z,52.99
2023-03-28T19:21:14.865Z,53.42
2023-03-28T19:23:41.830Z,53.62
2023-03-28T19:26:11.742Z,53.55
2023-03-28T19:28:39.179Z,53.61
2023-03-28T19:31:08.191Z,53.82
2023-03-28T19:33:36.394Z,53.60
2023-03-28T19:36:05.759Z,53.79
2023-03-28T19:38:35.372Z,53.96
2023-03-28T19:41:09.233Z,54.11
2023-03-28T19:43:38.504Z,54.25
2023-03-28T19:46:07.750Z,54.50
2023-03-28T19:48:35.986Z,54.45
2023-03-28T19:51:03.440Z,54.54
2023-03-28T19:53:30.284Z,54.58
2023-03-28T19:55:59.280Z,54.66
2023-03-28T19:58:27.096Z,54.73
2023-03-28T20:00:57.145Z,54.59
2023-03-28T20:03:24.500Z,54.88
2023-03-28T20:05:51.711Z,54.63
2023-03-28T20:08:19.082Z,54.99
2023-03-28T20:10:48.930Z,54.93
2023-03-28T20:13:17.126Z,54.96
2023-03-28T20:15:45.803Z,55.14
2023-03-28T20:18:14.671Z,55.27
2023-03-28T20:20:42.096Z,55.37
2023-03-28T20:23:09.787Z,55.24
2023-03-28T20:25:36.707Z,55.36
2023-03-28T20:28:04.366Z,55.47
2023-03-28T20:30:32.274Z,55.68
2023-03-28T20:32:59.524Z,55.61
2023-03-28T20:35:27.430Z,55.53
2023-03-28T20:37:54.500Z,55.76
2023-03-28T20:40:23.859Z,55.72
2023-03-28T20:42:52.514Z,55.64
2023-03-28T20:45:22.437Z,55.62
2023-03-28T20:47:56.707Z,55.67
2023-03-28T20:50:34.026Z,55.67
2023-03-28T20:53:03.257Z,55.79
2023-03-28T20:55:32.157Z,55.84
2023-03-28T20:57:58.961Z,55.87
2023-03-28T21:00:33.754Z,56.03
2023-03-28T21:03:00.822Z,55.82
2023-03-28T21:05:28.795Z,56.12
2023-03-28T21:07:56.618Z,56.04
2023-03-28T21:10:23.559Z,56.20
2023-03-28T21:12:50.941Z,56.31
2023-03-28T21:15:18.163Z,56.29
2023-03-28T21:17:48.969Z,56.15
2023-03-28T21:20:15.859Z,56.40
2023-03-28T21:22:42.583Z,56.60
2023-03-28T21:25:10.628Z,56.60
2023-03-28T21:27:37.568Z,56.53
2023-03-28T21:30:08.018Z,56.38
2023-03-28T21:32:35.841Z,56.54
2023-03-28T21:35:04.105Z,56.65
2023-03-28T21:37:31.420Z,56.67
2023-03-28T21:39:58.206Z,56.71
2023-03-28T21:42:25.529Z,56.83
2023-03-28T21:44:52.265Z,56.74
2023-03-28T21:47:18.963Z,56.94
2023-03-28T21:49:46.084Z,56.80
2023-03-28T21:52:13.117Z,56.99
2023-03-28T21:54:39.975Z,56.92
2023-03-28T21:57:06.792Z,56.96
2023-03-28T21:59:33.532Z,56.93
2023-03-28T22:02:00.649Z,56.94
2023-03-28T22:04:28.531Z,57.13
2023-03-28T22:06:55.685Z,56.98
2023-03-28T22:09:22.556Z,57.03
2023-03-28T22:11:49.447Z,57.02
2023-03-28T22:14:16.194Z,56.95
2023-03-28T22:16:42.869Z,56.82
2023-03-28T22:19:09.852Z,57.03
2023-03-28T22:21:37.509Z,56.81
2023-03-28T22:24:07.054Z,56.94
2023-03-28T22:26:33.932Z,57.01
2023-03-28T22:29:00.801Z,57.01
2023-03-28T22:31:28.268Z,57.12
2023-03-28T22:33:55.028Z,57.16
2023-03-28T22:36:21.917Z,57.30
2023-03-28T22:38:48.731Z,57.02
2023-03-28T22:41:15.754Z,57.06
2023-03-28T22:43:42.809Z,57.18
2023-03-28T22:46:12.648Z,57.08
2023-03-28T22:48:39.623Z,57.27
2023-03-28T22:51:11.736Z,57.28
2023-03-28T22:53:39.740Z,57.17
2023-03-28T22:56:07.542Z,57.16
2023-03-28T22:58:34.416Z,57.24
2023-03-28T23:01:01.581Z,57.40
2023-03-28T23:03:28.543Z,57.41
2023-03-28T23:05:55.408Z,57.39
2023-03-28T23:08:22.381Z,57.35
2023-03-28T23:10:49.424Z,57.50
2023-03-28T23:13:16.526Z,57.55
2023-03-28T23:15:43.830Z,57.48
2023-03-28T23:18:11.009Z,57.60
2023-03-28T23:20:38.211Z,57.46
2023-03-28T23:23:05.012Z,57.59
2023-03-28T23:25:33.111Z,57.72
2023-03-28T23:27:59.983Z,57.40
2023-03-28T23:30:27.202Z,57.55
2023-03-28T23:32:53.921Z,57.76
2023-03-28T23:35:20.863Z,57.50
2023-03-28T23:37:47.695Z,57.46
2023-03-28T23:40:15.234Z,57.50
2023-03-28T23:42:44.708Z,57.71
2023-03-28T23:45:14.681Z,57.77
2023-03-28T23:47:42.829Z,57.69
2023-03-28T23:50:10.624Z,57.73
2023-03-28T23:52:37.441Z,57.66
2023-03-28T23:55:04.685Z,57.81
2023-03-28T23:57:31.336Z,57.71
2023-03-28T23:59:58.114Z,57.88
